Krisjanis Valdemars — V7LI9 — position and weather

sailwx.info

Track history (hours):
 
Tides and Currents Weather Stations Pressure Air Temp Water Temp Dewpoint Dewpoint Depression Visibility Wind Speed Wind Dir Waves Ship Positions

Krisjanis Valdemars

Last reported at 2016-Sep-27 00:32 UTC. Time now 2016-Sep-28 03:28 UTC.
Position N 40°57' E 028°55'.

Length 183 m; draft 11.3 m.

Type: Tanker. MMSI: 538002757.

Date/timePositionNaut miles runAvg speedWind from/ knotsBaromVisibWave heightAir tempDewpointWater temp
2016-Sep-27 00:32N 40°57' E 028°55'  
2016-Sep-24 10:31N 44°43' E 037°50'0 0.0
2016-Sep-24 09:31N 44°43' E 037°50'0 0.0
2016-Sep-24 03:31N 44°43' E 037°50'0 0.0
2016-Sep-24 02:31N 44°43' E 037°50'0 0.0
2016-Sep-24 01:31N 44°43' E 037°50'0 0.0
2016-Sep-24 00:31N 44°43' E 037°50'0 0.0
2016-Sep-23 19:31N 44°43' E 037°50'0 0.0
2016-Sep-23 17:31N 44°43' E 037°50'0 0.0
2016-Sep-23 16:31N 44°43' E 037°50'0 0.0
2016-Sep-23 15:28N 44°43' E 037°50'0 0.0
2016-Sep-23 13:31N 44°43' E 037°50'0 0.0
2016-Sep-23 09:31N 44°43' E 037°50'0 0.0
2016-Sep-23 06:31N 44°43' E 037°50'0 0.0
2016-Sep-23 04:31N 44°43' E 037°50'0 0.0
2016-Sep-23 03:31N 44°43' E 037°50'0 0.0
2016-Sep-23 02:31N 44°43' E 037°50'0 0.0
2016-Sep-23 01:33N 44°43' E 037°50'2 1.7
2016-Sep-23 00:33N 44°41' E 037°50'5 5.2
2016-Sep-22 23:33N 44°36' E 037°51'17 1.5
2016-Sep-22 12:09N 44°28' E 037°31'4 0.5
2016-Sep-22 04:33N 44°24' E 037°31'1 0.9
2016-Sep-22 03:31N 44°24' E 037°31'2 0.7
2016-Sep-22 00:16N 44°23' E 037°35'0 0.5
2016-Sep-21 23:31N 44°23' E 037°35'0 0.3
2016-Sep-21 22:32N 44°23' E 037°35'5 0.7
2016-Sep-21 16:09N 44°26' E 037°30'10 1.5
2016-Sep-21 09:32N 44°20' E 037°19'43112.5
2016-Sep-19 23:05N 40°50' E 028°47'2 0.6
2016-Sep-19 19:33N 40°48' E 028°48'0 0.3
2016-Sep-19 18:31N 40°48' E 028°48'1 0.3
2016-Sep-19 16:27N 40°47' E 028°48'1 0.5
2016-Sep-19 14:32N 40°47' E 028°48'0 0.4
2016-Sep-19 13:22N 40°46' E 028°48'1 0.3
2016-Sep-19 11:32N 40°46' E 028°48'1 0.2
2016-Sep-19 07:31N 40°46' E 028°47'0 0.2
2016-Sep-19 06:12N 40°46' E 028°47'2 0.6
2016-Sep-19 03:30N 40°46' E 028°45'1 0.7
2016-Sep-19 02:27N 40°46' E 028°44'1 0.7
2016-Sep-19 00:32N 40°46' E 028°42'9410.5
2016-Sep-18 15:33N 40°23' E 026°42'207 7.9
2016-Sep-17 13:22N 37°35' E 024°07'1113.9
2016-Sep-17 12:33N 37°34' E 023°53'2412.0
2016-Sep-17 10:33N 37°52' E 023°32'0 0.5
2016-Sep-17 09:33N 37°52' E 023°31'0 0.0
2016-Sep-17 08:33N 37°52' E 023°31'0 0.1
2016-Sep-17 07:33N 37°52' E 023°31'3 1.7
2016-Sep-17 05:34N 37°52' E 023°36'7 7.3
2016-Sep-17 04:33N 37°46' E 023°42'4711.7
2016-Sep-17 00:34N 36°59' E 023°45'  
Track history (hours):
 
Tides and Currents Weather Stations Pressure Air Temp Water Temp Dewpoint Dewpoint Depression Visibility Wind Speed Wind Dir Waves Ship Positions

Krisjanis Valdemars

Last reported at 2016-Sep-27 00:32 UTC. Time now 2016-Sep-28 03:28 UTC.
Position N 40°57' E 028°55'.

Length 183 m; draft 11.3 m.

Type: Tanker. MMSI: 538002757.

Date/timePositionNaut miles runAvg speedWind from/ knotsBaromVisibWave heightAir tempDewpointWater temp
2016-Sep-27 00:32N 40°57' E 028°55'  
2016-Sep-24 10:31N 44°43' E 037°50'0 0.0
2016-Sep-24 09:31N 44°43' E 037°50'0 0.0
2016-Sep-24 03:31N 44°43' E 037°50'0 0.0
2016-Sep-24 02:31N 44°43' E 037°50'0 0.0
2016-Sep-24 01:31N 44°43' E 037°50'0 0.0
2016-Sep-24 00:31N 44°43' E 037°50'0 0.0
2016-Sep-23 19:31N 44°43' E 037°50'0 0.0
2016-Sep-23 17:31N 44°43' E 037°50'0 0.0
2016-Sep-23 16:31N 44°43' E 037°50'0 0.0
2016-Sep-23 15:28N 44°43' E 037°50'0 0.0
2016-Sep-23 13:31N 44°43' E 037°50'0 0.0
2016-Sep-23 09:31N 44°43' E 037°50'0 0.0
2016-Sep-23 06:31N 44°43' E 037°50'0 0.0
2016-Sep-23 04:31N 44°43' E 037°50'0 0.0
2016-Sep-23 03:31N 44°43' E 037°50'0 0.0
2016-Sep-23 02:31N 44°43' E 037°50'0 0.0
2016-Sep-23 01:33N 44°43' E 037°50'2 1.7
2016-Sep-23 00:33N 44°41' E 037°50'5 5.2
2016-Sep-22 23:33N 44°36' E 037°51'17 1.5
2016-Sep-22 12:09N 44°28' E 037°31'4 0.5
2016-Sep-22 04:33N 44°24' E 037°31'1 0.9
2016-Sep-22 03:31N 44°24' E 037°31'2 0.7
2016-Sep-22 00:16N 44°23' E 037°35'0 0.5
2016-Sep-21 23:31N 44°23' E 037°35'0 0.3
2016-Sep-21 22:32N 44°23' E 037°35'5 0.7
2016-Sep-21 16:09N 44°26' E 037°30'10 1.5
2016-Sep-21 09:32N 44°20' E 037°19'43112.5
2016-Sep-19 23:05N 40°50' E 028°47'2 0.6
2016-Sep-19 19:33N 40°48' E 028°48'0 0.3
2016-Sep-19 18:31N 40°48' E 028°48'1 0.3
2016-Sep-19 16:27N 40°47' E 028°48'1 0.5
2016-Sep-19 14:32N 40°47' E 028°48'0 0.4
2016-Sep-19 13:22N 40°46' E 028°48'1 0.3
2016-Sep-19 11:32N 40°46' E 028°48'1 0.2
2016-Sep-19 07:31N 40°46' E 028°47'0 0.2
2016-Sep-19 06:12N 40°46' E 028°47'2 0.6
2016-Sep-19 03:30N 40°46' E 028°45'1 0.7
2016-Sep-19 02:27N 40°46' E 028°44'1 0.7
2016-Sep-19 00:32N 40°46' E 028°42'9410.5
2016-Sep-18 15:33N 40°23' E 026°42'207 7.9
2016-Sep-17 13:22N 37°35' E 024°07'1113.9
2016-Sep-17 12:33N 37°34' E 023°53'2412.0
2016-Sep-17 10:33N 37°52' E 023°32'0 0.5
2016-Sep-17 09:33N 37°52' E 023°31'0 0.0
2016-Sep-17 08:33N 37°52' E 023°31'0 0.1
2016-Sep-17 07:33N 37°52' E 023°31'3 1.7
2016-Sep-17 05:34N 37°52' E 023°36'7 7.3
2016-Sep-17 04:33N 37°46' E 023°42'4711.7
2016-Sep-17 00:34N 36°59' E 023°45'  

Dump ship's entire track history